Time;durP1;ratioP1;P1;durP2;ratioP2;P2;SDS_P1;SDS_P2;PMS_P1;PMS_P2;Temp;Humidity;BMP_temperature;BMP_pressure;BME280_temperature;BME280_humidity;BME280_pressure;Samples;Min_cycle;Max_cycle;Signal;HPM_P1;HPM_P2
2023/09/30 00:01:22;;;;;;;15.43;5.50;;;12.20;99.90;;;;;;6155853;23;20466;-95
2023/09/30 00:03:48;;;;;;;16.13;5.47;;;12.20;99.90;;;;;;6158609;23;20450;-95
2023/09/30 00:06:13;;;;;;;13.23;5.20;;;12.60;99.90;;;;;;6155483;23;20919;-94
2023/09/30 00:08:41;;;;;;;15.30;5.43;;;11.80;99.90;;;;;;6158500;23;20915;-94
2023/09/30 00:11:07;;;;;;;19.63;6.65;;;12.20;99.90;;;;;;6149247;23;20412;-94
2023/09/30 00:13:33;;;;;;;14.82;5.00;;;11.90;99.90;;;;;;6128457;23;20454;-93
2023/09/30 00:15:58;;;;;;;14.52;6.43;;;11.80;99.90;;;;;;6153173;23;20378;-95
2023/09/30 00:18:24;;;;;;;19.93;7.93;;;11.80;99.90;;;;;;6126353;23;20396;-93
2023/09/30 00:20:50;;;;;;;13.80;5.40;;;12.20;99.90;;;;;;6128497;23;20365;-94
2023/09/30 00:23:16;;;;;;;13.25;4.88;;;12.10;99.90;;;;;;6125522;23;20444;-94
2023/09/30 00:25:42;;;;;;;14.48;5.63;;;12.20;99.90;;;;;;6128205;23;20751;-94
2023/09/30 00:28:08;;;;;;;15.17;5.70;;;12.00;99.90;;;;;;6126347;23;20471;-94
2023/09/30 00:30:33;;;;;;;11.40;5.30;;;11.80;99.90;;;;;;6128110;23;20396;-94
2023/09/30 00:33:00;;;;;;;13.48;4.93;;;12.10;99.90;;;;;;6126938;23;20365;-94
2023/09/30 00:35:25;;;;;;;17.67;6.80;;;12.10;99.90;;;;;;6127028;23;20377;-94
2023/09/30 00:37:51;;;;;;;11.47;5.60;;;11.20;99.90;;;;;;6128716;23;20455;-95
2023/09/30 00:40:17;;;;;;;13.98;5.00;;;11.60;99.90;;;;;;6126447;23;20405;-94
2023/09/30 00:42:42;;;;;;;14.30;5.30;;;11.60;99.90;;;;;;6129501;23;20374;-95
2023/09/30 00:45:10;;;;;;;16.02;6.00;;;11.60;99.90;;;;;;6125680;23;20448;-94
2023/09/30 00:47:36;;;;;;;13.68;5.47;;;11.60;99.90;;;;;;6128668;23;20457;-94
2023/09/30 00:50:04;;;;;;;14.20;6.25;;;11.90;99.90;;;;;;6126225;23;20369;-94
2023/09/30 00:52:32;;;;;;;15.77;5.75;;;11.50;99.90;;;;;;6128145;23;21073;-95
2023/09/30 00:54:58;;;;;;;12.00;5.55;;;11.80;99.90;;;;;;6128200;23;20376;-95
2023/09/30 00:57:25;;;;;;;15.57;6.90;;;11.50;99.90;;;;;;6126570;23;20422;-94
2023/09/30 00:59:51;;;;;;;19.45;7.50;;;11.40;99.90;;;;;;6128842;23;20397;-94
2023/09/30 01:02:18;;;;;;;16.15;6.10;;;11.60;99.90;;;;;;6125493;23;20490;-95
2023/09/30 01:04:44;;;;;;;18.00;6.32;;;12.00;99.90;;;;;;6128979;23;20370;-94
2023/09/30 01:07:11;;;;;;;11.77;4.30;;;11.70;99.90;;;;;;6151748;23;20774;-94
2023/09/30 01:09:37;;;;;;;10.80;5.40;;;11.50;99.90;;;;;;6131034;23;20884;-94
2023/09/30 01:12:04;;;;;;;12.05;4.88;;;12.00;99.90;;;;;;6129113;23;20404;-95
2023/09/30 01:14:34;;;;;;;12.85;5.40;;;11.60;99.90;;;;;;6129135;23;20377;-95
2023/09/30 01:17:01;;;;;;;12.57;5.65;;;11.80;99.90;;;;;;6131203;23;20386;-94
2023/09/30 01:19:27;;;;;;;17.00;6.10;;;11.70;99.90;;;;;;6127911;23;20373;-94
2023/09/30 01:22:05;;;;;;;17.00;6.25;;;12.10;99.90;;;;;;6131559;23;20419;-95
2023/09/30 01:24:38;;;;;;;16.02;6.30;;;12.00;99.90;;;;;;6128471;23;20639;-95
2023/09/30 01:27:03;;;;;;;12.13;6.25;;;12.00;99.90;;;;;;6130932;23;20377;-93
2023/09/30 01:29:32;;;;;;;17.85;7.35;;;12.20;99.90;;;;;;6130524;23;20452;-94
2023/09/30 01:31:58;;;;;;;17.67;6.70;;;11.60;99.90;;;;;;6128707;23;20968;-94
2023/09/30 01:34:26;;;;;;;15.55;6.28;;;11.90;99.90;;;;;;6130464;23;20566;-94
2023/09/30 01:36:52;;;;;;;17.88;7.10;;;11.90;99.90;;;;;;6127732;23;20370;-95
2023/09/30 01:39:17;;;;;;;16.27;7.03;;;11.90;99.90;;;;;;6130914;23;20390;-94
2023/09/30 01:41:43;;;;;;;15.18;5.90;;;11.40;99.90;;;;;;6127935;23;20370;-95
2023/09/30 01:44:09;;;;;;;9.77;4.30;;;11.90;99.90;;;;;;6131085;23;20433;-95
2023/09/30 01:46:36;;;;;;;10.13;4.43;;;11.90;99.90;;;;;;6127961;23;20374;-94
2023/09/30 01:49:03;;;;;;;16.08;6.68;;;11.70;99.90;;;;;;6129406;23;20842;-95
2023/09/30 01:51:29;;;;;;;12.63;5.35;;;12.00;99.90;;;;;;6130160;23;20730;-94
2023/09/30 01:53:55;;;;;;;11.02;4.60;;;12.00;99.90;;;;;;6128306;23;20373;-95
2023/09/30 01:56:21;;;;;;;7.60;3.93;;;11.80;99.90;;;;;;6130856;23;20409;-94
2023/09/30 01:58:47;;;;;;;10.15;3.90;;;12.20;99.90;;;;;;6127599;23;20384;-95
2023/09/30 02:01:15;;;;;;;13.35;5.82;;;11.80;99.90;;;;;;6130643;23;20376;-95
2023/09/30 02:03:41;;;;;;;12.25;4.95;;;12.00;99.90;;;;;;6128007;23;20520;-95
2023/09/30 02:06:08;;;;;;;14.13;5.65;;;11.80;99.90;;;;;;6131493;23;20365;-94
2023/09/30 02:08:36;;;;;;;10.32;3.60;;;11.80;99.90;;;;;;6130175;23;20428;-94
2023/09/30 02:11:05;;;;;;;8.87;4.67;;;12.30;99.90;;;;;;6137069;23;20395;-94
2023/09/30 02:13:42;;;;;;;11.40;5.00;;;12.00;99.90;;;;;;6164593;23;20396;-94
2023/09/30 02:16:22;;;;;;;15.73;5.72;;;12.00;99.90;;;;;;6160725;23;20727;-96
2023/09/30 02:18:56;;;;;;;18.35;7.35;;;11.80;99.90;;;;;;6167641;23;20379;-94
2023/09/30 02:21:24;;;;;;;15.65;5.82;;;12.00;99.90;;;;;;6185390;23;20421;-94
2023/09/30 02:24:10;;;;;;;16.27;6.80;;;11.70;99.90;;;;;;6190422;23;20399;-94
2023/09/30 02:26:42;;;;;;;16.08;6.60;;;11.90;99.90;;;;;;6164644;23;20364;-95
2023/09/30 02:29:12;;;;;;;12.10;5.22;;;11.90;99.90;;;;;;6164097;23;20382;-94
2023/09/30 02:31:38;;;;;;;14.20;5.85;;;11.90;99.90;;;;;;6163789;23;20439;-95
2023/09/30 02:34:09;;;;;;;15.43;6.85;;;12.00;99.90;;;;;;6164264;23;20376;-95
2023/09/30 02:40:56;;;;;;;11.77;5.45;;;11.90;99.90;;;;;;6190371;23;20380;-95
2023/09/30 02:43:14;;;;;;;12.75;5.63;;;12.10;99.90;;;;;;6170842;23;20372;-95
2023/09/30 02:46:27;;;;;;;;;;;;;;;;;;;;;
2023/09/30 02:50:02;;;;;;;;;;;;;;;;;;;;;
2023/09/30 02:53:10;;;;;;;;;;;;;;;;;;;;;
2023/09/30 02:56:47;;;;;;;;;;;;;;;;;;;;;
2023/09/30 03:03:46;;;;;;;;;;;;;;;;;;;;;
2023/09/30 03:06:44;;;;;;;14.73;4.85;;;12.10;99.90;;;;;;6065692;23;20388;-94
2023/09/30 03:10:04;;;;;;;;;;;;;;;;;;;;;
2023/09/30 03:13:01;;;;;;;5.50;2.67;;;12.10;99.90;;;;;;6164805;23;20927;-95
2023/09/30 03:16:05;;;;;;;10.68;4.22;;;12.20;99.90;;;;;;6159326;23;20385;-94
2023/09/30 03:19:15;;;;;;;9.80;4.30;;;12.00;99.90;;;;;;6138506;23;20449;-94
2023/09/30 03:23:11;;;;;;;13.03;5.37;;;12.00;99.90;;;;;;6133537;23;20401;-94
2023/09/30 03:25:31;;;;;;;13.82;5.20;;;11.80;99.90;;;;;;6152013;23;20373;-95
2023/09/30 03:28:14;;;;;;;11.00;4.50;;;12.00;99.90;;;;;;6133658;23;20373;-95
2023/09/30 03:34:11;;;;;;;13.68;6.22;;;12.00;99.90;;;;;;6156037;23;20405;-95
2023/09/30 03:37:28;;;;;;;;;;;;;;;;;;;;;
2023/09/30 03:40:29;;;;;;;17.70;6.32;;;11.90;99.90;;;;;;6163812;23;20377;-94
2023/09/30 03:44:10;;;;;;;11.17;5.00;;;11.90;99.90;;;;;;6158485;23;20443;-94
2023/09/30 03:47:00;;;;;;;13.70;4.70;;;11.90;99.90;;;;;;6155863;23;20381;-95
2023/09/30 03:49:34;;;;;;;13.23;6.32;;;11.90;99.90;;;;;;6130301;23;20374;-95
2023/09/30 03:52:25;;;;;;;14.63;6.40;;;11.90;99.90;;;;;;6129352;23;20459;-95
2023/09/30 03:58:30;;;;;;;14.13;4.75;;;12.00;99.90;;;;;;6148556;23;20381;-94
2023/09/30 04:01:14;;;;;;;16.90;7.30;;;11.90;99.90;;;;;;6133017;23;20416;-94
2023/09/30 04:04:09;;;;;;;13.23;5.95;;;11.70;99.90;;;;;;6154413;23;20387;-94
2023/09/30 04:06:43;;;;;;;9.90;2.83;;;12.00;99.90;;;;;;6129683;23;20373;-94
2023/09/30 04:09:32;;;;;;;8.85;3.95;;;11.50;99.90;;;;;;6132180;23;20380;-94
2023/09/30 04:12:05;;;;;;;12.23;5.53;;;11.90;99.90;;;;;;6143537;23;20442;-94
2023/09/30 04:14:49;;;;;;;10.43;5.03;;;11.70;99.90;;;;;;6169925;23;20410;-95
2023/09/30 04:59:53;;;;;;;;;;;;;;;;;;;;;
2023/09/30 05:37:38;;;;;;;16.60;6.93;;;11.20;99.90;;;;;;5752667;22;11599851;-94
2023/09/30 05:40:21;;;;;;;19.55;9.20;;;11.00;99.90;;;;;;6215235;23;20404;-94
2023/09/30 05:43:22;;;;;;;14.60;7.63;;;11.00;99.90;;;;;;6220317;23;20369;-95
2023/09/30 05:46:24;;;;;;;17.02;8.55;;;11.10;99.90;;;;;;6229387;23;20378;-94
2023/09/30 05:49:30;;;;;;;22.50;9.52;;;11.10;99.90;;;;;;6221466;23;20373;-93
2023/09/30 05:55:38;;;;;;;;;;;;;;;;;;;;;
2023/09/30 05:58:27;;;;;;;27.52;12.50;;;11.30;99.90;;;;;;6245313;23;20437;-94
2023/09/30 06:01:18;;;;;;;20.33;9.57;;;11.00;99.90;;;;;;6221506;23;20389;-95
2023/09/30 06:03:47;;;;;;;19.98;9.35;;;11.10;99.90;;;;;;6218520;23;20397;-94
2023/09/30 06:06:15;;;;;;;26.08;11.18;;;11.30;99.90;;;;;;6222787;23;20845;-94
2023/09/30 06:09:14;;;;;;;31.30;14.88;;;11.20;99.90;;;;;;6220842;23;20361;-95
2023/09/30 06:11:48;;;;;;;23.65;12.05;;;11.10;99.90;;;;;;6225911;23;20445;-95
2023/09/30 06:14:46;;;;;;;15.52;8.90;;;11.10;99.90;;;;;;6229111;23;20377;-95
2023/09/30 06:17:36;;;;;;;32.45;13.40;;;11.10;99.90;;;;;;6162109;23;20431;-95
2023/09/30 06:20:41;;;;;;;29.07;14.33;;;11.30;99.90;;;;;;6228787;23;20417;-95
2023/09/30 06:23:13;;;;;;;16.48;10.60;;;11.20;99.90;;;;;;6229445;23;20429;-95
2023/09/30 06:26:07;;;;;;;;;;;;;;;;;;;;;
2023/09/30 06:28:56;;;;;;;19.02;11.50;;;11.50;99.90;;;;;;6253543;23;20365;-94
2023/09/30 06:31:41;;;;;;;;;;;;;;;;;;;;;
2023/09/30 06:34:59;;;;;;;36.92;17.50;;;11.60;99.90;;;;;;6229586;23;20851;-95
2023/09/30 06:39:25;;;;;;;;;;;;;;;;;;;;;
2023/09/30 09:09:39;;;;;;;11.68;4.47;;;16.90;99.90;;;;;;6041391;23;20415;-95
2023/09/30 09:12:29;;;;;;;;;;;;;;;;;;;;;
2023/09/30 09:15:40;;;;;;;;;;;;;;;;;;;;;
2023/09/30 09:18:32;;;;;;;9.37;3.70;;;17.30;99.90;;;;;;6070043;23;20745;-95
2023/09/30 09:24:56;;;;;;;12.63;4.15;;;17.60;99.90;;;;;;6244527;22;20399;-95
2023/09/30 09:35:05;;;;;;;12.02;4.00;;;17.80;99.90;;;;;;6032917;23;20393;-94
2023/09/30 09:41:39;;;;;;;10.82;2.80;;;18.10;99.90;;;;;;6088154;23;20408;-96
2023/09/30 09:49:31;;;;;;;;;;;;;;;;;;;;;
2023/09/30 09:56:29;;;;;;;;;;;;;;;;;;;;;
2023/09/30 09:59:14;;;;;;;10.20;1.92;;;18.80;99.90;;;;;;5880233;24;20399;-95
2023/09/30 10:01:45;;;;;;;9.83;1.83;;;18.70;99.90;;;;;;5929563;23;20383;-95
2023/09/30 10:04:44;;;;;;;8.43;1.30;;;18.90;99.90;;;;;;6179871;23;20370;-95
2023/09/30 10:11:08;;;;;;;7.10;1.20;;;18.60;99.90;;;;;;6182988;22;20361;-94
2023/09/30 10:13:53;;;;;;;6.63;0.93;;;18.80;99.90;;;;;;6248062;22;20460;-95
2023/09/30 10:16:37;;;;;;;9.40;0.93;;;18.60;99.90;;;;;;6249502;22;20398;-94
2023/09/30 10:19:29;;;;;;;8.97;1.00;;;18.50;99.90;;;;;;6251135;22;20428;-95
2023/09/30 10:22:21;;;;;;;9.73;1.00;;;18.60;99.90;;;;;;6254907;22;20449;-96
2023/09/30 10:24:56;;;;;;;7.97;0.98;;;19.30;99.90;;;;;;6252665;22;20544;-95
2023/09/30 10:27:32;;;;;;;7.30;0.90;;;19.00;99.90;;;;;;6251087;22;20816;-95
2023/09/30 10:30:16;;;;;;;7.10;0.75;;;19.10;99.90;;;;;;6250231;22;20409;-95
2023/09/30 10:32:54;;;;;;;9.10;1.08;;;19.50;99.90;;;;;;6250904;22;20379;-94
2023/09/30 10:35:32;;;;;;;7.40;0.80;;;19.60;99.90;;;;;;6247321;22;20382;-94
2023/09/30 10:38:23;;;;;;;7.75;0.82;;;19.40;99.90;;;;;;6250531;22;20457;-94
2023/09/30 10:40:52;;;;;;;8.15;1.25;;;19.30;99.90;;;;;;6248661;22;20391;-94
2023/09/30 10:43:35;;;;;;;7.88;0.88;;;18.80;99.90;;;;;;6248938;22;20967;-94
2023/09/30 10:46:07;;;;;;;6.65;1.02;;;18.50;99.90;;;;;;6250178;22;20371;-94
2023/09/30 10:48:38;;;;;;;7.47;0.85;;;18.90;99.90;;;;;;6247043;22;20367;-94
2023/09/30 10:51:12;;;;;;;5.60;0.70;;;18.30;99.90;;;;;;6250860;22;20389;-95
2023/09/30 10:53:56;;;;;;;6.57;0.82;;;18.40;99.90;;;;;;6248154;22;20370;-94
2023/09/30 10:56:23;;;;;;;7.47;1.00;;;18.00;99.90;;;;;;6248899;22;20396;-96
2023/09/30 10:58:53;;;;;;;8.35;1.00;;;18.00;99.90;;;;;;6249955;22;20366;-95
2023/09/30 11:01:23;;;;;;;6.35;0.80;;;17.90;99.90;;;;;;6246671;22;20394;-95
2023/09/30 11:03:53;;;;;;;8.88;0.90;;;17.90;99.90;;;;;;6249967;22;20367;-95
2023/09/30 11:06:21;;;;;;;7.60;0.82;;;18.20;99.90;;;;;;6247048;22;20448;-94
2023/09/30 11:08:53;;;;;;;8.93;0.82;;;18.60;99.90;;;;;;6249507;22;20369;-94
2023/09/30 11:11:19;;;;;;;8.00;0.95;;;18.20;99.90;;;;;;6249024;22;20828;-94
2023/09/30 11:13:45;;;;;;;8.40;1.20;;;18.20;99.90;;;;;;6247696;22;20366;-94
2023/09/30 11:16:10;;;;;;;4.97;0.80;;;18.20;99.90;;;;;;6249525;22;20367;-95
2023/09/30 11:18:38;;;;;;;7.18;0.90;;;18.60;99.90;;;;;;6246944;22;20390;-94
2023/09/30 11:21:12;;;;;;;7.68;1.00;;;18.80;99.90;;;;;;6249736;22;20759;-95
2023/09/30 11:23:40;;;;;;;7.93;0.98;;;18.70;99.90;;;;;;6246911;22;20381;-94
2023/09/30 11:26:06;;;;;;;7.93;0.80;;;19.10;99.90;;;;;;6249965;22;20453;-95
2023/09/30 11:28:37;;;;;;;6.60;0.70;;;19.50;99.90;;;;;;6248741;22;20366;-94
2023/09/30 11:31:03;;;;;;;6.35;0.80;;;19.80;99.90;;;;;;6248020;22;20414;-94
2023/09/30 11:33:30;;;;;;;6.50;0.73;;;20.80;99.90;;;;;;6249883;22;20358;-94
2023/09/30 11:36:05;;;;;;;6.27;0.60;;;20.50;99.90;;;;;;6246544;22;20367;-94
2023/09/30 11:38:33;;;;;;;8.80;0.90;;;20.70;99.90;;;;;;6249661;22;20377;-93
2023/09/30 11:41:06;;;;;;;5.28;0.52;;;20.90;99.90;;;;;;6246646;22;20395;-94
2023/09/30 11:43:35;;;;;;;5.32;0.57;;;21.10;99.90;;;;;;6249393;22;20430;-94
2023/09/30 11:46:13;;;;;;;6.53;0.73;;;21.10;99.90;;;;;;6249439;22;20374;-94
2023/09/30 11:48:57;;;;;;;6.53;0.80;;;20.80;99.90;;;;;;6247176;22;20375;-94
2023/09/30 11:51:26;;;;;;;6.20;0.77;;;20.90;98.80;;;;;;6249553;22;20775;-95
2023/09/30 11:54:00;;;;;;;5.90;0.77;;;20.60;82.30;;;;;;6247164;22;20371;-94
2023/09/30 11:56:29;;;;;;;4.68;0.98;;;20.70;94.20;;;;;;6250291;22;20370;-93
2023/09/30 11:58:56;;;;;;;4.90;0.65;;;20.70;96.30;;;;;;6248528;22;20365;-89
2023/09/30 12:01:22;;;;;;;4.50;0.73;;;20.80;91.40;;;;;;6272641;22;20453;-90
2023/09/30 12:03:48;;;;;;;5.50;0.60;;;20.90;83.30;;;;;;6249344;22;20374;-91
2023/09/30 12:06:16;;;;;;;7.10;0.90;;;21.10;96.50;;;;;;6246226;22;20453;-92
2023/09/30 12:08:42;;;;;;;5.60;0.60;;;21.00;75.10;;;;;;6249223;22;20370;-89
2023/09/30 12:11:08;;;;;;;5.27;0.50;;;21.60;81.80;;;;;;6271788;22;20381;-90
2023/09/30 12:13:34;;;;;;;4.82;0.47;;;21.10;83.20;;;;;;6248626;22;20834;-90
2023/09/30 12:15:59;;;;;;;5.80;0.60;;;20.90;80.50;;;;;;6247033;22;20385;-89
2023/09/30 12:18:26;;;;;;;5.38;0.75;;;21.20;78.40;;;;;;6273549;22;20377;-91
2023/09/30 12:20:52;;;;;;;6.32;0.70;;;21.70;78.90;;;;;;6274376;22;20397;-89
2023/09/30 12:23:19;;;;;;;6.38;0.65;;;21.60;71.80;;;;;;6271854;22;20370;-91
2023/09/30 12:25:48;;;;;;;4.97;0.50;;;21.40;76.20;;;;;;6273024;22;20484;-88
2023/09/30 12:28:15;;;;;;;5.95;0.70;;;21.00;75.90;;;;;;6271404;22;20367;-91
2023/09/30 12:30:41;;;;;;;6.20;0.70;;;21.30;72.90;;;;;;6249003;22;20735;-88
2023/09/30 12:33:07;;;;;;;7.13;0.73;;;21.10;80.90;;;;;;6246547;22;20362;-90
2023/09/30 12:35:33;;;;;;;7.38;0.73;;;21.00;74.70;;;;;;6247497;22;20696;-91
2023/09/30 12:37:59;;;;;;;5.78;0.70;;;21.00;75.70;;;;;;6248130;22;20366;-87
2023/09/30 12:40:25;;;;;;;7.25;0.63;;;21.20;80.10;;;;;;6271980;22;20929;-88
2023/09/30 12:42:51;;;;;;;5.80;0.60;;;20.90;76.80;;;;;;6248452;22;20366;-91
2023/09/30 12:45:18;;;;;;;5.50;0.50;;;20.70;76.50;;;;;;6246255;22;20413;-92
2023/09/30 12:47:45;;;;;;;6.93;0.70;;;20.60;75.50;;;;;;6248985;22;20370;-88
2023/09/30 12:50:11;;;;;;;4.43;0.60;;;20.50;82.50;;;;;;6245716;22;20370;-89
2023/09/30 12:52:38;;;;;;;7.47;0.82;;;20.50;87.10;;;;;;6247882;22;20515;-88
2023/09/30 12:55:04;;;;;;;5.07;0.90;;;20.70;82.10;;;;;;6272343;22;20370;-89
2023/09/30 12:57:31;;;;;;;4.70;0.70;;;20.20;91.70;;;;;;6272336;22;20445;-88
2023/09/30 12:59:57;;;;;;;4.85;0.95;;;20.20;80.70;;;;;;6247620;22;20459;-88
2023/09/30 13:02:23;;;;;;;3.90;0.82;;;20.20;89.40;;;;;;6244892;22;20890;-89
2023/09/30 13:04:49;;;;;;;7.20;0.80;;;20.30;90.90;;;;;;6248099;22;20370;-89
2023/09/30 13:07:15;;;;;;;7.50;0.80;;;20.60;98.30;;;;;;6244970;22;20897;-88
2023/09/30 13:09:41;;;;;;;6.78;0.85;;;20.30;96.10;;;;;;6247387;22;20406;-89
2023/09/30 13:12:08;;;;;;;5.72;0.80;;;20.40;97.00;;;;;;6245780;22;20438;-87
2023/09/30 13:14:34;;;;;;;6.10;0.77;;;20.30;97.90;;;;;;6300212;22;20696;-90
2023/09/30 13:17:00;;;;;;;4.90;0.60;;;20.70;83.50;;;;;;6247105;22;20402;-88
2023/09/30 13:19:27;;;;;;;7.65;0.80;;;20.40;88.20;;;;;;6244971;22;20807;-89
2023/09/30 13:21:53;;;;;;;5.85;0.75;;;20.30;91.80;;;;;;6300806;22;20359;-90
2023/09/30 13:24:22;;;;;;;5.35;0.68;;;20.70;88.30;;;;;;6245148;22;20413;-89
2023/09/30 13:26:52;;;;;;;4.90;0.68;;;20.30;83.40;;;;;;6273043;22;20910;-88
2023/09/30 13:29:18;;;;;;;7.03;0.60;;;20.50;79.50;;;;;;6270595;22;20355;-87
2023/09/30 13:31:44;;;;;;;6.13;0.85;;;20.10;85.30;;;;;;6272253;22;20375;-88
2023/09/30 13:34:12;;;;;;;8.30;0.88;;;20.20;83.40;;;;;;6272066;22;20445;-88
2023/09/30 13:36:38;;;;;;;6.17;0.70;;;20.20;95.10;;;;;;6245294;22;20370;-88
2023/09/30 13:39:05;;;;;;;6.72;0.50;;;20.50;91.70;;;;;;6246938;22;20478;-88
2023/09/30 13:41:35;;;;;;;5.33;0.90;;;20.70;96.40;;;;;;6270410;22;20394;-89
2023/09/30 13:44:00;;;;;;;6.95;0.88;;;20.40;84.00;;;;;;6274741;22;20378;-90
2023/09/30 13:46:27;;;;;;;6.17;0.70;;;20.40;79.50;;;;;;6247427;22;20844;-88
2023/09/30 13:48:53;;;;;;;7.07;0.70;;;20.30;77.70;;;;;;6274624;22;20925;-88
2023/09/30 13:51:19;;;;;;;6.83;0.90;;;20.20;79.80;;;;;;6273672;22;20373;-90
2023/09/30 13:53:45;;;;;;;5.82;0.75;;;20.20;77.10;;;;;;6248499;22;20370;-88
2023/09/30 13:56:10;;;;;;;5.70;0.80;;;20.10;88.40;;;;;;6274647;22;20377;-88
2023/09/30 13:58:36;;;;;;;7.40;0.95;;;20.00;80.90;;;;;;6272323;22;20668;-88
2023/09/30 14:01:03;;;;;;;6.18;0.80;;;20.30;89.60;;;;;;6274463;22;20799;-89
2023/09/30 14:03:29;;;;;;;6.63;0.70;;;20.00;90.60;;;;;;6246802;22;20952;-89
2023/09/30 14:05:56;;;;;;;5.40;0.70;;;20.00;94.00;;;;;;6275943;22;20400;-90
2023/09/30 14:08:22;;;;;;;7.00;0.80;;;20.10;75.30;;;;;;6248307;22;20700;-89
2023/09/30 14:10:48;;;;;;;7.17;0.90;;;19.80;82.80;;;;;;6247760;22;20385;-89
2023/09/30 14:13:14;;;;;;;5.43;0.60;;;19.80;90.90;;;;;;6273076;22;20382;-87
2023/09/30 14:15:40;;;;;;;6.30;0.60;;;20.10;92.30;;;;;;6272126;22;20370;-89
2023/09/30 14:18:06;;;;;;;6.05;0.50;;;20.10;91.40;;;;;;6248734;22;20359;-90
2023/09/30 14:20:33;;;;;;;5.03;0.80;;;20.50;85.80;;;;;;6271898;22;20390;-89
2023/09/30 14:22:59;;;;;;;6.88;0.70;;;20.10;85.20;;;;;;6301888;22;20377;-89
2023/09/30 14:25:26;;;;;;;5.68;0.50;;;20.20;83.00;;;;;;6272136;22;20378;-89
2023/09/30 14:27:52;;;;;;;5.45;0.55;;;19.90;91.80;;;;;;6248624;22;20421;-89
2023/09/30 14:30:19;;;;;;;6.25;0.68;;;19.90;78.60;;;;;;6273294;22;20370;-88
2023/09/30 14:32:45;;;;;;;5.88;0.55;;;19.90;84.90;;;;;;6247747;22;20847;-89
2023/09/30 14:35:11;;;;;;;4.60;0.60;;;20.10;82.10;;;;;;6249372;22;20376;-88
2023/09/30 14:37:36;;;;;;;5.93;0.50;;;19.60;78.20;;;;;;6271871;22;20374;-88
2023/09/30 14:40:10;;;;;;;7.35;0.60;;;20.00;93.10;;;;;;6301362;22;20475;-89
2023/09/30 14:42:39;;;;;;;4.33;0.50;;;19.70;90.20;;;;;;6246158;22;20370;-89
2023/09/30 14:45:05;;;;;;;5.40;0.60;;;19.90;85.70;;;;;;6248494;22;20406;-88
2023/09/30 14:47:31;;;;;;;5.35;0.63;;;19.70;86.60;;;;;;6273016;22;20366;-88
2023/09/30 14:49:57;;;;;;;5.50;0.60;;;19.70;95.80;;;;;;6272960;22;20441;-88
2023/09/30 14:52:22;;;;;;;5.43;0.57;;;19.70;99.90;;;;;;6274048;22;20375;-89
2023/09/30 14:54:48;;;;;;;6.37;0.80;;;19.80;99.90;;;;;;6271785;22;20450;-90
2023/09/30 14:57:15;;;;;;;7.50;0.80;;;19.90;97.10;;;;;;6273685;22;20370;-88
2023/09/30 14:59:41;;;;;;;6.55;0.70;;;20.00;89.00;;;;;;6245936;22;20394;-89
2023/09/30 15:02:10;;;;;;;6.35;0.60;;;19.20;88.00;;;;;;6273436;22;20367;-88
2023/09/30 15:04:36;;;;;;;7.05;0.70;;;19.60;93.30;;;;;;6246372;22;20371;-88
2023/09/30 15:07:02;;;;;;;7.00;0.50;;;19.50;92.30;;;;;;6273206;22;20382;-89
2023/09/30 15:09:28;;;;;;;5.97;0.63;;;19.40;99.90;;;;;;6273126;22;20413;-88
2023/09/30 15:11:54;;;;;;;5.83;0.70;;;19.60;95.90;;;;;;6246352;22;20371;-88
2023/09/30 15:14:20;;;;;;;7.07;0.90;;;19.30;99.50;;;;;;6273660;22;20370;-88
2023/09/30 15:16:46;;;;;;;5.72;0.60;;;19.40;93.90;;;;;;6272486;22;20358;-93
2023/09/30 15:19:12;;;;;;;5.75;0.70;;;19.40;95.20;;;;;;6243454;22;20416;-93
2023/09/30 15:21:37;;;;;;;5.72;0.80;;;18.70;99.90;;;;;;6248255;22;20386;-92
2023/09/30 15:24:04;;;;;;;6.60;0.70;;;19.20;99.90;;;;;;6250129;22;20399;-94
2023/09/30 15:26:31;;;;;;;5.17;0.80;;;19.10;99.90;;;;;;6219079;22;20483;-92
2023/09/30 15:28:57;;;;;;;5.85;0.60;;;19.20;99.90;;;;;;6219175;22;20368;-92
2023/09/30 15:31:32;;;;;;;4.22;0.55;;;19.10;99.90;;;;;;6219706;22;20415;-92
2023/09/30 15:33:58;;;;;;;6.18;0.70;;;19.40;99.90;;;;;;6216762;22;20372;-92
2023/09/30 15:36:25;;;;;;;7.18;0.70;;;19.20;99.90;;;;;;6219700;22;20719;-93
2023/09/30 15:38:51;;;;;;;5.57;0.50;;;18.90;99.90;;;;;;6217657;22;20396;-93
2023/09/30 15:41:23;;;;;;;5.38;0.50;;;18.90;99.90;;;;;;6219503;22;20396;-92
2023/09/30 15:43:49;;;;;;;6.03;0.73;;;18.90;99.90;;;;;;6219195;22;20375;-92
2023/09/30 15:46:15;;;;;;;7.67;0.90;;;18.90;99.90;;;;;;6218996;22;20372;-92
2023/09/30 15:48:41;;;;;;;6.55;0.88;;;19.20;99.90;;;;;;6219881;22;20467;-91
2023/09/30 15:51:06;;;;;;;6.07;0.82;;;19.10;99.90;;;;;;6217984;22;20829;-92
2023/09/30 15:53:36;;;;;;;8.63;0.90;;;18.70;99.90;;;;;;6244138;22;21142;-93
2023/09/30 15:56:05;;;;;;;5.53;0.90;;;19.10;99.90;;;;;;6217434;22;20827;-93
2023/09/30 15:58:30;;;;;;;5.87;0.80;;;18.70;99.90;;;;;;6220186;22;20380;-92
2023/09/30 16:00:56;;;;;;;6.68;1.08;;;18.70;99.90;;;;;;6218296;22;21092;-93
2023/09/30 16:03:22;;;;;;;5.85;0.80;;;18.60;99.90;;;;;;6218534;22;20878;-93
2023/09/30 16:05:49;;;;;;;6.53;0.70;;;18.60;99.90;;;;;;6217918;22;20451;-92
2023/09/30 16:08:15;;;;;;;5.63;0.98;;;18.60;99.90;;;;;;6216987;22;20372;-93
2023/09/30 16:10:43;;;;;;;4.87;0.60;;;18.30;99.90;;;;;;6219385;22;20737;-93
2023/09/30 16:13:09;;;;;;;5.63;0.50;;;18.60;99.90;;;;;;6216181;22;20368;-94
2023/09/30 16:15:38;;;;;;;5.38;0.65;;;19.20;99.90;;;;;;6219452;22;20371;-92
2023/09/30 16:18:04;;;;;;;5.90;1.08;;;18.90;99.90;;;;;;6242331;22;20958;-93
2023/09/30 16:20:29;;;;;;;6.40;1.13;;;18.50;99.90;;;;;;6218558;22;20419;-92
2023/09/30 16:22:55;;;;;;;5.28;0.60;;;18.30;99.90;;;;;;6218646;22;20765;-93
2023/09/30 16:25:24;;;;;;;6.30;0.90;;;18.80;99.90;;;;;;6234116;22;20381;-94
2023/09/30 16:27:52;;;;;;;6.00;0.60;;;18.80;99.90;;;;;;6249416;22;20397;-94
2023/09/30 16:30:18;;;;;;;6.60;0.73;;;18.40;99.90;;;;;;6247197;22;20733;-93
2023/09/30 16:32:44;;;;;;;6.15;0.75;;;18.40;99.90;;;;;;6249516;22;20980;-93
2023/09/30 16:35:10;;;;;;;5.70;0.82;;;18.40;99.90;;;;;;6246886;22;20394;-93
2023/09/30 16:37:37;;;;;;;6.20;0.60;;;18.60;99.90;;;;;;6249132;22;20366;-93
2023/09/30 16:40:03;;;;;;;5.43;0.65;;;17.90;99.90;;;;;;6248055;22;20397;-93
2023/09/30 16:42:31;;;;;;;6.03;0.70;;;18.10;99.90;;;;;;6248742;22;20450;-92
2023/09/30 16:44:58;;;;;;;5.88;0.80;;;18.40;99.90;;;;;;6249431;22;20377;-92
2023/09/30 16:47:23;;;;;;;7.50;0.75;;;18.00;99.90;;;;;;6247113;22;20711;-92
2023/09/30 16:49:49;;;;;;;6.53;1.00;;;17.90;99.90;;;;;;6249038;22;20389;-93
2023/09/30 16:52:15;;;;;;;6.63;0.73;;;17.70;99.90;;;;;;6247147;22;20388;-91
2023/09/30 16:54:41;;;;;;;6.50;1.05;;;17.70;99.90;;;;;;6249853;22;20395;-93
2023/09/30 16:57:07;;;;;;;5.88;0.60;;;17.60;99.90;;;;;;6247404;22;20893;-92
2023/09/30 16:59:34;;;;;;;6.28;0.60;;;17.90;99.90;;;;;;6274271;22;20375;-92
2023/09/30 17:02:00;;;;;;;3.72;0.60;;;17.50;99.90;;;;;;6248539;22;20382;-93
2023/09/30 17:04:26;;;;;;;4.93;0.70;;;17.50;99.90;;;;;;6246567;22;20367;-93
2023/09/30 17:06:52;;;;;;;5.05;0.70;;;17.40;99.90;;;;;;6248570;22;20402;-92
2023/09/30 17:09:17;;;;;;;6.28;0.70;;;17.40;99.90;;;;;;6246633;22;20369;-92
2023/09/30 17:11:43;;;;;;;5.68;0.70;;;17.40;99.90;;;;;;6249464;22;20363;-92
2023/09/30 17:14:09;;;;;;;6.93;0.80;;;17.30;99.90;;;;;;6247190;22;20710;-93
2023/09/30 17:16:35;;;;;;;5.85;0.88;;;17.20;99.90;;;;;;6249440;22;20457;-90
2023/09/30 17:19:01;;;;;;;7.13;1.17;;;17.30;99.90;;;;;;6247384;22;20934;-92
2023/09/30 17:21:26;;;;;;;4.90;0.60;;;17.10;99.90;;;;;;6247152;22;20391;-92
2023/09/30 17:23:52;;;;;;;4.77;0.63;;;17.00;99.90;;;;;;6248982;22;20377;-91
2023/09/30 17:26:18;;;;;;;6.35;0.68;;;17.00;99.90;;;;;;6241739;22;20603;-93
2023/09/30 17:28:44;;;;;;;5.30;0.50;;;17.60;99.90;;;;;;6244438;22;20841;-93
2023/09/30 17:31:10;;;;;;;5.10;0.75;;;17.20;99.90;;;;;;6241793;22;20474;-94
2023/09/30 17:33:38;;;;;;;6.18;0.68;;;17.00;99.90;;;;;;6243423;22;20408;-93
2023/09/30 17:36:05;;;;;;;8.20;1.08;;;16.90;99.90;;;;;;6242629;22;20372;-92
2023/09/30 17:38:32;;;;;;;6.00;0.70;;;16.90;99.90;;;;;;6244147;22;20703;-92
2023/09/30 17:41:02;;;;;;;6.18;0.95;;;16.90;99.90;;;;;;6243597;22;20403;-92
2023/09/30 17:43:28;;;;;;;5.30;0.80;;;16.80;99.90;;;;;;6242083;22;20438;-93
2023/09/30 17:45:54;;;;;;;7.75;0.82;;;16.90;99.90;;;;;;6244461;22;20371;-93
2023/09/30 17:48:22;;;;;;;5.63;0.80;;;17.40;99.90;;;;;;6241029;22;20387;-94
2023/09/30 17:50:50;;;;;;;5.43;1.05;;;16.90;99.90;;;;;;6244496;22;20365;-91
2023/09/30 17:53:16;;;;;;;6.53;1.73;;;16.90;99.90;;;;;;6241898;22;20781;-93
2023/09/30 17:55:42;;;;;;;8.43;1.90;;;16.90;99.90;;;;;;6244094;22;20396;-93
2023/09/30 17:58:08;;;;;;;7.20;1.58;;;17.00;99.90;;;;;;6243114;22;20857;-92
2023/09/30 18:00:34;;;;;;;7.63;1.33;;;16.90;99.90;;;;;;6243039;22;20794;-92
2023/09/30 18:03:00;;;;;;;5.35;1.30;;;17.00;99.90;;;;;;6243223;22;20463;-92